sensor_id;sensor_type;location;lat;lon;timestamp;P1;durP1;ratioP1;P2;durP2;ratioP2
19038;SDS011;9652;49.014;12.052;2023-11-19T00:01:48;2.77;;;2.67;;
19038;SDS011;9652;49.014;12.052;2023-11-19T00:04:15;2.70;;;2.50;;
19038;SDS011;9652;49.014;12.052;2023-11-19T00:06:43;2.90;;;2.70;;
19038;SDS011;9652;49.014;12.052;2023-11-19T00:09:10;2.40;;;2.30;;
19038;SDS011;9652;49.014;12.052;2023-11-19T00:11:37;3.00;;;2.80;;
19038;SDS011;9652;49.014;12.052;2023-11-19T00:14:04;2.40;;;2.20;;
19038;SDS011;9652;49.014;12.052;2023-11-19T00:16:35;2.73;;;2.53;;
19038;SDS011;9652;49.014;12.052;2023-11-19T00:19:02;2.27;;;2.17;;
19038;SDS011;9652;49.014;12.052;2023-11-19T00:21:30;2.80;;;2.70;;
19038;SDS011;9652;49.014;12.052;2023-11-19T00:23:58;3.27;;;3.00;;
19038;SDS011;9652;49.014;12.052;2023-11-19T00:26:25;2.87;;;2.67;;
19038;SDS011;9652;49.014;12.052;2023-11-19T00:28:53;2.60;;;2.50;;
19038;SDS011;9652;49.014;12.052;2023-11-19T00:31:21;2.33;;;2.20;;
19038;SDS011;9652;49.014;12.052;2023-11-19T00:33:49;2.80;;;2.60;;
19038;SDS011;9652;49.014;12.052;2023-11-19T00:36:16;2.73;;;2.53;;
19038;SDS011;9652;49.014;12.052;2023-11-19T00:38:43;2.60;;;2.50;;
19038;SDS011;9652;49.014;12.052;2023-11-19T00:41:11;2.90;;;2.80;;
19038;SDS011;9652;49.014;12.052;2023-11-19T00:43:40;2.20;;;2.10;;
19038;SDS011;9652;49.014;12.052;2023-11-19T00:46:07;3.20;;;3.00;;
19038;SDS011;9652;49.014;12.052;2023-11-19T00:48:36;2.80;;;2.60;;
19038;SDS011;9652;49.014;12.052;2023-11-19T00:51:05;2.30;;;2.20;;
19038;SDS011;9652;49.014;12.052;2023-11-19T00:53:32;2.60;;;2.50;;
19038;SDS011;9652;49.014;12.052;2023-11-19T00:56:00;2.67;;;2.57;;
19038;SDS011;9652;49.014;12.052;2023-11-19T00:58:27;2.20;;;2.10;;
19038;SDS011;9652;49.014;12.052;2023-11-19T01:00:54;2.63;;;2.53;;
19038;SDS011;9652;49.014;12.052;2023-11-19T01:03:22;3.07;;;2.87;;
19038;SDS011;9652;49.014;12.052;2023-11-19T01:05:49;2.90;;;2.70;;
19038;SDS011;9652;49.014;12.052;2023-11-19T01:08:19;2.70;;;2.60;;
19038;SDS011;9652;49.014;12.052;2023-11-19T01:10:46;2.43;;;2.33;;
19038;SDS011;9652;49.014;12.052;2023-11-19T01:13:13;2.60;;;2.40;;
19038;SDS011;9652;49.014;12.052;2023-11-19T01:15:40;2.57;;;2.37;;
19038;SDS011;9652;49.014;12.052;2023-11-19T01:18:07;2.60;;;2.50;;
19038;SDS011;9652;49.014;12.052;2023-11-19T01:20:36;2.30;;;2.20;;
19038;SDS011;9652;49.014;12.052;2023-11-19T01:23:03;2.73;;;2.53;;
19038;SDS011;9652;49.014;12.052;2023-11-19T01:25:32;2.73;;;2.60;;
19038;SDS011;9652;49.014;12.052;2023-11-19T01:27:59;2.50;;;2.40;;
19038;SDS011;9652;49.014;12.052;2023-11-19T01:30:27;2.23;;;2.13;;
19038;SDS011;9652;49.014;12.052;2023-11-19T01:32:54;2.93;;;2.73;;
19038;SDS011;9652;49.014;12.052;2023-11-19T01:35:21;3.10;;;2.90;;
19038;SDS011;9652;49.014;12.052;2023-11-19T01:37:49;2.17;;;2.07;;
19038;SDS011;9652;49.014;12.052;2023-11-19T01:40:19;2.40;;;2.30;;
19038;SDS011;9652;49.014;12.052;2023-11-19T01:42:49;2.53;;;2.40;;
19038;SDS011;9652;49.014;12.052;2023-11-19T01:45:21;2.50;;;2.40;;
19038;SDS011;9652;49.014;12.052;2023-11-19T01:47:55;2.53;;;2.43;;
19038;SDS011;9652;49.014;12.052;2023-11-19T01:50:25;2.50;;;2.40;;
19038;SDS011;9652;49.014;12.052;2023-11-19T01:52:54;2.70;;;2.10;;
19038;SDS011;9652;49.014;12.052;2023-11-19T01:55:22;2.70;;;2.60;;
19038;SDS011;9652;49.014;12.052;2023-11-19T01:57:54;3.00;;;2.80;;
19038;SDS011;9652;49.014;12.052;2023-11-19T02:00:27;2.87;;;2.73;;
19038;SDS011;9652;49.014;12.052;2023-11-19T02:02:54;2.30;;;2.20;;
19038;SDS011;9652;49.014;12.052;2023-11-19T02:05:23;2.27;;;2.17;;
19038;SDS011;9652;49.014;12.052;2023-11-19T02:07:51;2.53;;;2.43;;
19038;SDS011;9652;49.014;12.052;2023-11-19T02:10:19;2.40;;;2.30;;
19038;SDS011;9652;49.014;12.052;2023-11-19T02:12:46;2.70;;;2.60;;
19038;SDS011;9652;49.014;12.052;2023-11-19T02:15:14;2.37;;;2.27;;
19038;SDS011;9652;49.014;12.052;2023-11-19T02:17:44;2.53;;;2.43;;
19038;SDS011;9652;49.014;12.052;2023-11-19T02:20:11;2.40;;;2.30;;
19038;SDS011;9652;49.014;12.052;2023-11-19T02:22:40;3.30;;;2.80;;
19038;SDS011;9652;49.014;12.052;2023-11-19T02:25:07;2.50;;;2.40;;
19038;SDS011;9652;49.014;12.052;2023-11-19T02:27:57;2.10;;;2.00;;
19038;SDS011;9652;49.014;12.052;2023-11-19T02:30:27;2.40;;;2.20;;
19038;SDS011;9652;49.014;12.052;2023-11-19T02:32:54;2.77;;;2.50;;
19038;SDS011;9652;49.014;12.052;2023-11-19T02:35:23;2.37;;;2.27;;
19038;SDS011;9652;49.014;12.052;2023-11-19T02:37:51;2.90;;;2.80;;
19038;SDS011;9652;49.014;12.052;2023-11-19T02:40:18;3.00;;;2.80;;
19038;SDS011;9652;49.014;12.052;2023-11-19T02:42:48;2.60;;;2.50;;
19038;SDS011;9652;49.014;12.052;2023-11-19T02:45:16;2.57;;;2.40;;
19038;SDS011;9652;49.014;12.052;2023-11-19T02:47:44;2.00;;;1.90;;
19038;SDS011;9652;49.014;12.052;2023-11-19T02:50:11;2.20;;;2.10;;
19038;SDS011;9652;49.014;12.052;2023-11-19T02:52:39;1.97;;;1.87;;
19038;SDS011;9652;49.014;12.052;2023-11-19T02:55:07;2.50;;;2.40;;
19038;SDS011;9652;49.014;12.052;2023-11-19T02:57:38;2.83;;;2.60;;
19038;SDS011;9652;49.014;12.052;2023-11-19T03:00:12;2.13;;;2.03;;
19038;SDS011;9652;49.014;12.052;2023-11-19T03:02:42;2.70;;;2.60;;
19038;SDS011;9652;49.014;12.052;2023-11-19T03:05:12;2.10;;;2.00;;
19038;SDS011;9652;49.014;12.052;2023-11-19T03:07:40;2.70;;;2.30;;
19038;SDS011;9652;49.014;12.052;2023-11-19T03:10:09;2.50;;;2.30;;
19038;SDS011;9652;49.014;12.052;2023-11-19T03:12:39;2.53;;;2.43;;
19038;SDS011;9652;49.014;12.052;2023-11-19T03:15:06;2.23;;;2.13;;
19038;SDS011;9652;49.014;12.052;2023-11-19T03:17:35;2.37;;;2.27;;
19038;SDS011;9652;49.014;12.052;2023-11-19T03:20:06;2.50;;;2.40;;
19038;SDS011;9652;49.014;12.052;2023-11-19T03:22:37;2.27;;;2.17;;
19038;SDS011;9652;49.014;12.052;2023-11-19T03:25:04;2.70;;;2.60;;
19038;SDS011;9652;49.014;12.052;2023-11-19T03:27:33;2.60;;;2.50;;
19038;SDS011;9652;49.014;12.052;2023-11-19T03:30:01;2.33;;;2.23;;
19038;SDS011;9652;49.014;12.052;2023-11-19T03:32:30;2.27;;;2.17;;
19038;SDS011;9652;49.014;12.052;2023-11-19T03:34:58;2.23;;;2.13;;
19038;SDS011;9652;49.014;12.052;2023-11-19T03:37:27;2.83;;;2.67;;
19038;SDS011;9652;49.014;12.052;2023-11-19T03:39:54;2.53;;;2.43;;
19038;SDS011;9652;49.014;12.052;2023-11-19T03:42:24;2.47;;;2.37;;
19038;SDS011;9652;49.014;12.052;2023-11-19T03:44:52;2.20;;;2.10;;
19038;SDS011;9652;49.014;12.052;2023-11-19T03:47:20;2.37;;;2.27;;
19038;SDS011;9652;49.014;12.052;2023-11-19T03:49:48;2.23;;;2.13;;
19038;SDS011;9652;49.014;12.052;2023-11-19T03:52:15;2.17;;;2.07;;
19038;SDS011;9652;49.014;12.052;2023-11-19T03:54:44;2.37;;;2.27;;
19038;SDS011;9652;49.014;12.052;2023-11-19T03:57:12;2.33;;;2.23;;
19038;SDS011;9652;49.014;12.052;2023-11-19T03:59:40;2.63;;;2.53;;
19038;SDS011;9652;49.014;12.052;2023-11-19T04:02:08;3.00;;;2.90;;
19038;SDS011;9652;49.014;12.052;2023-11-19T04:04:35;2.40;;;2.30;;
19038;SDS011;9652;49.014;12.052;2023-11-19T04:07:03;2.60;;;2.50;;
19038;SDS011;9652;49.014;12.052;2023-11-19T04:09:31;2.50;;;2.33;;
19038;SDS011;9652;49.014;12.052;2023-11-19T04:12:00;2.40;;;2.30;;
19038;SDS011;9652;49.014;12.052;2023-11-19T04:14:27;2.43;;;2.33;;
19038;SDS011;9652;49.014;12.052;2023-11-19T04:16:54;2.33;;;2.23;;
19038;SDS011;9652;49.014;12.052;2023-11-19T04:19:21;2.70;;;2.60;;
19038;SDS011;9652;49.014;12.052;2023-11-19T04:21:49;2.67;;;2.57;;
19038;SDS011;9652;49.014;12.052;2023-11-19T04:24:17;2.87;;;2.77;;
19038;SDS011;9652;49.014;12.052;2023-11-19T04:26:45;2.20;;;2.10;;
19038;SDS011;9652;49.014;12.052;2023-11-19T04:29:14;2.50;;;2.40;;
19038;SDS011;9652;49.014;12.052;2023-11-19T04:31:43;2.43;;;2.33;;
19038;SDS011;9652;49.014;12.052;2023-11-19T04:34:10;2.23;;;2.13;;
19038;SDS011;9652;49.014;12.052;2023-11-19T04:36:38;2.63;;;2.43;;
19038;SDS011;9652;49.014;12.052;2023-11-19T04:39:05;2.63;;;2.50;;
19038;SDS011;9652;49.014;12.052;2023-11-19T04:41:45;2.63;;;2.53;;
19038;SDS011;9652;49.014;12.052;2023-11-19T04:44:15;2.77;;;2.67;;
19038;SDS011;9652;49.014;12.052;2023-11-19T04:46:42;2.30;;;2.20;;
19038;SDS011;9652;49.014;12.052;2023-11-19T04:49:10;2.93;;;2.73;;
19038;SDS011;9652;49.014;12.052;2023-11-19T04:51:38;2.60;;;2.50;;
19038;SDS011;9652;49.014;12.052;2023-11-19T04:54:07;3.07;;;2.87;;
19038;SDS011;9652;49.014;12.052;2023-11-19T04:56:34;3.00;;;2.90;;
19038;SDS011;9652;49.014;12.052;2023-11-19T04:59:02;3.23;;;3.03;;
19038;SDS011;9652;49.014;12.052;2023-11-19T05:01:32;3.00;;;2.80;;
19038;SDS011;9652;49.014;12.052;2023-11-19T05:04:00;3.10;;;2.90;;
19038;SDS011;9652;49.014;12.052;2023-11-19T05:06:27;2.93;;;2.73;;
19038;SDS011;9652;49.014;12.052;2023-11-19T05:08:55;2.60;;;2.47;;
19038;SDS011;9652;49.014;12.052;2023-11-19T05:11:22;2.80;;;2.63;;
19038;SDS011;9652;49.014;12.052;2023-11-19T05:13:49;2.87;;;2.67;;
19038;SDS011;9652;49.014;12.052;2023-11-19T05:16:16;3.17;;;2.97;;
19038;SDS011;9652;49.014;12.052;2023-11-19T05:18:45;3.83;;;3.63;;
19038;SDS011;9652;49.014;12.052;2023-11-19T05:21:13;2.90;;;2.77;;
19038;SDS011;9652;49.014;12.052;2023-11-19T05:23:40;3.30;;;3.10;;
19038;SDS011;9652;49.014;12.052;2023-11-19T05:26:07;4.13;;;2.87;;
19038;SDS011;9652;49.014;12.052;2023-11-19T05:28:37;3.00;;;2.80;;
19038;SDS011;9652;49.014;12.052;2023-11-19T05:31:05;3.43;;;3.20;;
19038;SDS011;9652;49.014;12.052;2023-11-19T05:33:32;3.07;;;2.87;;
19038;SDS011;9652;49.014;12.052;2023-11-19T05:36:00;3.23;;;3.03;;
19038;SDS011;9652;49.014;12.052;2023-11-19T05:38:28;2.97;;;2.77;;
19038;SDS011;9652;49.014;12.052;2023-11-19T05:40:55;3.03;;;2.83;;
19038;SDS011;9652;49.014;12.052;2023-11-19T05:43:22;3.00;;;2.80;;
19038;SDS011;9652;49.014;12.052;2023-11-19T05:45:49;3.30;;;3.10;;
19038;SDS011;9652;49.014;12.052;2023-11-19T05:48:16;3.47;;;3.27;;
19038;SDS011;9652;49.014;12.052;2023-11-19T05:50:44;3.67;;;3.40;;
19038;SDS011;9652;49.014;12.052;2023-11-19T05:53:12;3.53;;;3.23;;
19038;SDS011;9652;49.014;12.052;2023-11-19T05:55:40;3.63;;;3.33;;
19038;SDS011;9652;49.014;12.052;2023-11-19T05:58:15;4.00;;;3.70;;
19038;SDS011;9652;49.014;12.052;2023-11-19T06:00:42;4.20;;;3.90;;
19038;SDS011;9652;49.014;12.052;2023-11-19T06:03:09;3.30;;;3.10;;
19038;SDS011;9652;49.014;12.052;2023-11-19T06:05:36;3.90;;;3.70;;
19038;SDS011;9652;49.014;12.052;2023-11-19T06:08:03;3.57;;;3.27;;
19038;SDS011;9652;49.014;12.052;2023-11-19T06:10:33;3.87;;;3.57;;
19038;SDS011;9652;49.014;12.052;2023-11-19T06:13:00;3.17;;;2.93;;
19038;SDS011;9652;49.014;12.052;2023-11-19T06:15:30;3.90;;;3.60;;
19038;SDS011;9652;49.014;12.052;2023-11-19T06:17:58;4.10;;;3.80;;
19038;SDS011;9652;49.014;12.052;2023-11-19T06:20:26;3.60;;;3.30;;
19038;SDS011;9652;49.014;12.052;2023-11-19T06:22:56;4.23;;;3.93;;
19038;SDS011;9652;49.014;12.052;2023-11-19T06:25:24;3.87;;;3.57;;
19038;SDS011;9652;49.014;12.052;2023-11-19T06:27:52;3.83;;;3.53;;
19038;SDS011;9652;49.014;12.052;2023-11-19T06:30:19;4.40;;;4.00;;
19038;SDS011;9652;49.014;12.052;2023-11-19T06:32:46;4.60;;;4.20;;
19038;SDS011;9652;49.014;12.052;2023-11-19T06:35:14;3.77;;;3.47;;
19038;SDS011;9652;49.014;12.052;2023-11-19T06:37:41;4.37;;;3.97;;
19038;SDS011;9652;49.014;12.052;2023-11-19T06:40:08;3.03;;;2.83;;
19038;SDS011;9652;49.014;12.052;2023-11-19T06:42:37;3.77;;;3.47;;
19038;SDS011;9652;49.014;12.052;2023-11-19T06:45:06;3.03;;;2.83;;
19038;SDS011;9652;49.014;12.052;2023-11-19T06:47:34;4.00;;;3.70;;
19038;SDS011;9652;49.014;12.052;2023-11-19T06:50:01;3.87;;;3.57;;
19038;SDS011;9652;49.014;12.052;2023-11-19T06:52:31;4.00;;;3.70;;
19038;SDS011;9652;49.014;12.052;2023-11-19T06:54:58;3.27;;;3.07;;
19038;SDS011;9652;49.014;12.052;2023-11-19T06:57:25;4.10;;;3.80;;
19038;SDS011;9652;49.014;12.052;2023-11-19T06:59:53;3.57;;;3.27;;
19038;SDS011;9652;49.014;12.052;2023-11-19T07:02:21;4.00;;;3.63;;
19038;SDS011;9652;49.014;12.052;2023-11-19T07:04:48;3.60;;;3.30;;
19038;SDS011;9652;49.014;12.052;2023-11-19T07:07:16;3.70;;;3.40;;
19038;SDS011;9652;49.014;12.052;2023-11-19T07:09:43;3.20;;;3.00;;
19038;SDS011;9652;49.014;12.052;2023-11-19T07:12:10;3.40;;;3.20;;
19038;SDS011;9652;49.014;12.052;2023-11-19T07:14:38;3.67;;;3.43;;
19038;SDS011;9652;49.014;12.052;2023-11-19T07:17:07;3.33;;;3.10;;
19038;SDS011;9652;49.014;12.052;2023-11-19T07:19:36;3.77;;;3.47;;
19038;SDS011;9652;49.014;12.052;2023-11-19T07:22:04;3.27;;;3.07;;
19038;SDS011;9652;49.014;12.052;2023-11-19T07:24:32;3.33;;;3.13;;
19038;SDS011;9652;49.014;12.052;2023-11-19T07:27:00;3.30;;;3.00;;
19038;SDS011;9652;49.014;12.052;2023-11-19T07:29:29;3.20;;;3.00;;
19038;SDS011;9652;49.014;12.052;2023-11-19T07:31:56;3.97;;;3.67;;
19038;SDS011;9652;49.014;12.052;2023-11-19T07:34:23;3.00;;;2.80;;
19038;SDS011;9652;49.014;12.052;2023-11-19T07:36:52;3.23;;;3.03;;
19038;SDS011;9652;49.014;12.052;2023-11-19T07:39:20;3.10;;;2.90;;
19038;SDS011;9652;49.014;12.052;2023-11-19T07:41:47;3.20;;;3.00;;
19038;SDS011;9652;49.014;12.052;2023-11-19T07:44:14;2.90;;;2.70;;
19038;SDS011;9652;49.014;12.052;2023-11-19T07:46:41;3.47;;;3.27;;
19038;SDS011;9652;49.014;12.052;2023-11-19T07:49:10;2.70;;;2.50;;
19038;SDS011;9652;49.014;12.052;2023-11-19T07:51:37;3.03;;;2.80;;
19038;SDS011;9652;49.014;12.052;2023-11-19T07:54:06;4.43;;;2.60;;
19038;SDS011;9652;49.014;12.052;2023-11-19T07:56:33;2.63;;;2.43;;
19038;SDS011;9652;49.014;12.052;2023-11-19T07:59:00;2.57;;;2.37;;
19038;SDS011;9652;49.014;12.052;2023-11-19T08:01:28;3.10;;;2.90;;
19038;SDS011;9652;49.014;12.052;2023-11-19T08:03:55;3.10;;;2.90;;
19038;SDS011;9652;49.014;12.052;2023-11-19T08:06:22;3.37;;;3.17;;
19038;SDS011;9652;49.014;12.052;2023-11-19T08:08:49;3.07;;;2.87;;
19038;SDS011;9652;49.014;12.052;2023-11-19T08:11:18;2.67;;;2.47;;
19038;SDS011;9652;49.014;12.052;2023-11-19T08:13:45;4.73;;;3.37;;
19038;SDS011;9652;49.014;12.052;2023-11-19T08:16:13;2.70;;;2.60;;
19038;SDS011;9652;49.014;12.052;2023-11-19T08:18:41;3.37;;;3.17;;
19038;SDS011;9652;49.014;12.052;2023-11-19T08:21:09;3.37;;;3.10;;
19038;SDS011;9652;49.014;12.052;2023-11-19T08:23:36;2.93;;;2.73;;
19038;SDS011;9652;49.014;12.052;2023-11-19T08:26:04;3.30;;;3.10;;
19038;SDS011;9652;49.014;12.052;2023-11-19T08:28:33;2.97;;;2.77;;
19038;SDS011;9652;49.014;12.052;2023-11-19T08:31:00;3.07;;;2.83;;
19038;SDS011;9652;49.014;12.052;2023-11-19T08:33:29;3.30;;;3.07;;
19038;SDS011;9652;49.014;12.052;2023-11-19T08:35:56;3.30;;;3.10;;
19038;SDS011;9652;49.014;12.052;2023-11-19T08:38:23;3.17;;;2.93;;
19038;SDS011;9652;49.014;12.052;2023-11-19T08:40:51;3.47;;;3.20;;
19038;SDS011;9652;49.014;12.052;2023-11-19T08:43:18;3.07;;;2.87;;
19038;SDS011;9652;49.014;12.052;2023-11-19T08:45:47;3.80;;;3.50;;
19038;SDS011;9652;49.014;12.052;2023-11-19T08:48:14;3.30;;;3.00;;
19038;SDS011;9652;49.014;12.052;2023-11-19T08:50:41;3.40;;;3.20;;
19038;SDS011;9652;49.014;12.052;2023-11-19T08:53:08;3.33;;;3.10;;
19038;SDS011;9652;49.014;12.052;2023-11-19T08:55:36;3.53;;;3.30;;
19038;SDS011;9652;49.014;12.052;2023-11-19T08:58:03;3.73;;;3.43;;
19038;SDS011;9652;49.014;12.052;2023-11-19T09:00:30;3.63;;;3.33;;
19038;SDS011;9652;49.014;12.052;2023-11-19T09:02:59;3.63;;;3.33;;
19038;SDS011;9652;49.014;12.052;2023-11-19T09:05:26;3.93;;;3.63;;
19038;SDS011;9652;49.014;12.052;2023-11-19T09:07:53;2.77;;;2.57;;
19038;SDS011;9652;49.014;12.052;2023-11-19T09:10:20;3.23;;;3.00;;
19038;SDS011;9652;49.014;12.052;2023-11-19T09:12:48;3.47;;;3.20;;
19038;SDS011;9652;49.014;12.052;2023-11-19T09:15:15;3.00;;;2.80;;
19038;SDS011;9652;49.014;12.052;2023-11-19T09:17:42;3.93;;;3.17;;
19038;SDS011;9652;49.014;12.052;2023-11-19T09:20:12;3.50;;;3.30;;
19038;SDS011;9652;49.014;12.052;2023-11-19T09:22:40;3.40;;;3.10;;
19038;SDS011;9652;49.014;12.052;2023-11-19T09:25:07;3.20;;;3.00;;
19038;SDS011;9652;49.014;12.052;2023-11-19T09:27:35;3.17;;;2.97;;
19038;SDS011;9652;49.014;12.052;2023-11-19T09:30:02;3.37;;;3.17;;
19038;SDS011;9652;49.014;12.052;2023-11-19T09:32:30;3.67;;;3.20;;
19038;SDS011;9652;49.014;12.052;2023-11-19T09:34:57;3.30;;;3.00;;
19038;SDS011;9652;49.014;12.052;2023-11-19T09:37:27;3.53;;;3.23;;
19038;SDS011;9652;49.014;12.052;2023-11-19T09:39:54;4.00;;;3.70;;
19038;SDS011;9652;49.014;12.052;2023-11-19T09:42:21;3.77;;;3.47;;
19038;SDS011;9652;49.014;12.052;2023-11-19T09:44:50;3.27;;;2.97;;
19038;SDS011;9652;49.014;12.052;2023-11-19T09:47:19;3.63;;;3.33;;
19038;SDS011;9652;49.014;12.052;2023-11-19T09:49:46;4.20;;;3.50;;
19038;SDS011;9652;49.014;12.052;2023-11-19T09:52:15;3.30;;;3.10;;
19038;SDS011;9652;49.014;12.052;2023-11-19T09:54:44;4.23;;;3.83;;
19038;SDS011;9652;49.014;12.052;2023-11-19T09:57:11;3.93;;;3.53;;
19038;SDS011;9652;49.014;12.052;2023-11-19T09:59:42;3.47;;;3.17;;
19038;SDS011;9652;49.014;12.052;2023-11-19T10:02:11;3.97;;;3.67;;
19038;SDS011;9652;49.014;12.052;2023-11-19T10:04:40;3.87;;;3.50;;
19038;SDS011;9652;49.014;12.052;2023-11-19T10:07:12;4.10;;;3.70;;
19038;SDS011;9652;49.014;12.052;2023-11-19T10:09:39;3.73;;;3.43;;
19038;SDS011;9652;49.014;12.052;2023-11-19T10:12:08;3.87;;;3.47;;
19038;SDS011;9652;49.014;12.052;2023-11-19T10:14:35;3.70;;;3.40;;
19038;SDS011;9652;49.014;12.052;2023-11-19T10:17:06;3.10;;;2.90;;
19038;SDS011;9652;49.014;12.052;2023-11-19T10:19:34;3.73;;;3.43;;
19038;SDS011;9652;49.014;12.052;2023-11-19T10:22:02;3.80;;;3.50;;
19038;SDS011;9652;49.014;12.052;2023-11-19T10:24:31;3.50;;;3.20;;
19038;SDS011;9652;49.014;12.052;2023-11-19T10:26:59;3.97;;;3.57;;
19038;SDS011;9652;49.014;12.052;2023-11-19T10:29:30;3.67;;;3.37;;
19038;SDS011;9652;49.014;12.052;2023-11-19T10:31:57;3.93;;;3.63;;
19038;SDS011;9652;49.014;12.052;2023-11-19T10:34:25;3.33;;;3.03;;
19038;SDS011;9652;49.014;12.052;2023-11-19T10:36:54;3.40;;;3.10;;
19038;SDS011;9652;49.014;12.052;2023-11-19T10:39:22;3.50;;;3.10;;
19038;SDS011;9652;49.014;12.052;2023-11-19T10:41:49;3.73;;;3.43;;
19038;SDS011;9652;49.014;12.052;2023-11-19T10:44:33;3.47;;;3.00;;
19038;SDS011;9652;49.014;12.052;2023-11-19T10:47:01;3.17;;;2.90;;
19038;SDS011;9652;49.014;12.052;2023-11-19T10:49:32;3.60;;;3.30;;
19038;SDS011;9652;49.014;12.052;2023-11-19T10:52:00;3.80;;;3.50;;
19038;SDS011;9652;49.014;12.052;2023-11-19T10:54:33;4.50;;;4.10;;
19038;SDS011;9652;49.014;12.052;2023-11-19T10:57:01;4.27;;;3.83;;
19038;SDS011;9652;49.014;12.052;2023-11-19T10:59:31;3.83;;;3.43;;
19038;SDS011;9652;49.014;12.052;2023-11-19T11:02:03;4.13;;;3.80;;
19038;SDS011;9652;49.014;12.052;2023-11-19T11:04:37;4.33;;;3.73;;
19038;SDS011;9652;49.014;12.052;2023-11-19T11:07:07;4.77;;;3.70;;
19038;SDS011;9652;49.014;12.052;2023-11-19T11:09:36;3.70;;;3.40;;
19038;SDS011;9652;49.014;12.052;2023-11-19T11:12:04;3.57;;;3.13;;
19038;SDS011;9652;49.014;12.052;2023-11-19T11:14:35;4.27;;;3.83;;
19038;SDS011;9652;49.014;12.052;2023-11-19T11:17:06;5.03;;;3.43;;
19038;SDS011;9652;49.014;12.052;2023-11-19T11:19:38;5.47;;;3.77;;
19038;SDS011;9652;49.014;12.052;2023-11-19T11:22:05;4.20;;;3.80;;
19038;SDS011;9652;49.014;12.052;2023-11-19T11:24:40;4.43;;;3.80;;
19038;SDS011;9652;49.014;12.052;2023-11-19T11:31:07;3.53;;;3.23;;
19038;SDS011;9652;49.014;12.052;2023-11-19T11:33:59;4.00;;;3.37;;
19038;SDS011;9652;49.014;12.052;2023-11-19T11:37:02;4.00;;;3.47;;
19038;SDS011;9652;49.014;12.052;2023-11-19T11:39:39;4.13;;;3.70;;
19038;SDS011;9652;49.014;12.052;2023-11-19T11:45:04;4.60;;;4.07;;
19038;SDS011;9652;49.014;12.052;2023-11-19T11:50:48;4.27;;;3.47;;
19038;SDS011;9652;49.014;12.052;2023-11-19T11:53:19;3.47;;;3.17;;
19038;SDS011;9652;49.014;12.052;2023-11-19T11:55:53;3.03;;;2.73;;
19038;SDS011;9652;49.014;12.052;2023-11-19T11:58:35;3.30;;;3.00;;
19038;SDS011;9652;49.014;12.052;2023-11-19T12:01:04;4.13;;;3.73;;
19038;SDS011;9652;49.014;12.052;2023-11-19T12:03:33;2.50;;;2.30;;
19038;SDS011;9652;49.014;12.052;2023-11-19T12:06:00;1.73;;;1.63;;
19038;SDS011;9652;49.014;12.052;2023-11-19T12:08:28;1.83;;;1.70;;
19038;SDS011;9652;49.014;12.052;2023-11-19T12:11:00;1.80;;;1.70;;
19038;SDS011;9652;49.014;12.052;2023-11-19T12:13:29;1.90;;;1.37;;
19038;SDS011;9652;49.014;12.052;2023-11-19T12:16:18;1.30;;;1.20;;
19038;SDS011;9652;49.014;12.052;2023-11-19T12:18:48;1.33;;;1.23;;
19038;SDS011;9652;49.014;12.052;2023-11-19T12:21:28;1.50;;;1.40;;
19038;SDS011;9652;49.014;12.052;2023-11-19T12:23:57;1.33;;;1.20;;
19038;SDS011;9652;49.014;12.052;2023-11-19T12:26:36;1.40;;;1.30;;
19038;SDS011;9652;49.014;12.052;2023-11-19T12:29:04;2.00;;;1.13;;
19038;SDS011;9652;49.014;12.052;2023-11-19T12:31:34;1.17;;;1.17;;
19038;SDS011;9652;49.014;12.052;2023-11-19T12:34:09;1.33;;;1.20;;
19038;SDS011;9652;49.014;12.052;2023-11-19T12:36:38;1.67;;;1.10;;
19038;SDS011;9652;49.014;12.052;2023-11-19T12:39:07;1.27;;;1.10;;
19038;SDS011;9652;49.014;12.052;2023-11-19T12:41:53;1.17;;;1.17;;
19038;SDS011;9652;49.014;12.052;2023-11-19T12:44:21;1.60;;;1.30;;
19038;SDS011;9652;49.014;12.052;2023-11-19T12:47:01;1.20;;;1.10;;
19038;SDS011;9652;49.014;12.052;2023-11-19T12:49:33;2.13;;;1.03;;
19038;SDS011;9652;49.014;12.052;2023-11-19T12:52:00;1.63;;;1.20;;
19038;SDS011;9652;49.014;12.052;2023-11-19T12:54:32;1.60;;;1.50;;
19038;SDS011;9652;49.014;12.052;2023-11-19T12:57:01;1.13;;;1.13;;
19038;SDS011;9652;49.014;12.052;2023-11-19T12:59:28;2.50;;;1.30;;
19038;SDS011;9652;49.014;12.052;2023-11-19T13:01:55;1.10;;;1.10;;
19038;SDS011;9652;49.014;12.052;2023-11-19T13:04:23;0.97;;;0.97;;
19038;SDS011;9652;49.014;12.052;2023-11-19T13:06:57;1.67;;;1.33;;
19038;SDS011;9652;49.014;12.052;2023-11-19T13:09:24;1.30;;;1.20;;
19038;SDS011;9652;49.014;12.052;2023-11-19T13:11:53;1.50;;;1.40;;
19038;SDS011;9652;49.014;12.052;2023-11-19T13:14:21;1.47;;;1.37;;
19038;SDS011;9652;49.014;12.052;2023-11-19T13:16:49;1.70;;;1.60;;
19038;SDS011;9652;49.014;12.052;2023-11-19T13:19:16;2.67;;;1.80;;
19038;SDS011;9652;49.014;12.052;2023-11-19T13:21:44;1.70;;;1.60;;
19038;SDS011;9652;49.014;12.052;2023-11-19T13:24:13;3.30;;;1.47;;
19038;SDS011;9652;49.014;12.052;2023-11-19T13:26:40;1.50;;;1.40;;
19038;SDS011;9652;49.014;12.052;2023-11-19T13:29:07;3.10;;;1.40;;
19038;SDS011;9652;49.014;12.052;2023-11-19T13:31:35;0.90;;;0.90;;
19038;SDS011;9652;49.014;12.052;2023-11-19T13:34:03;1.37;;;1.27;;
19038;SDS011;9652;49.014;12.052;2023-11-19T13:36:32;1.37;;;1.27;;
19038;SDS011;9652;49.014;12.052;2023-11-19T13:38:59;1.17;;;1.10;;
19038;SDS011;9652;49.014;12.052;2023-11-19T13:41:27;1.50;;;1.37;;
19038;SDS011;9652;49.014;12.052;2023-11-19T13:43:55;1.10;;;1.10;;
19038;SDS011;9652;49.014;12.052;2023-11-19T13:46:22;1.30;;;1.20;;
19038;SDS011;9652;49.014;12.052;2023-11-19T13:48:49;1.07;;;1.03;;
19038;SDS011;9652;49.014;12.052;2023-11-19T13:51:16;1.30;;;1.30;;
19038;SDS011;9652;49.014;12.052;2023-11-19T13:53:43;1.00;;;1.00;;
19038;SDS011;9652;49.014;12.052;2023-11-19T13:56:10;0.93;;;0.93;;
19038;SDS011;9652;49.014;12.052;2023-11-19T13:58:38;1.27;;;1.00;;
19038;SDS011;9652;49.014;12.052;2023-11-19T14:01:06;1.67;;;1.30;;
19038;SDS011;9652;49.014;12.052;2023-11-19T14:03:33;1.33;;;1.23;;
19038;SDS011;9652;49.014;12.052;2023-11-19T14:06:00;2.63;;;1.10;;
19038;SDS011;9652;49.014;12.052;2023-11-19T14:08:28;1.03;;;0.83;;
19038;SDS011;9652;49.014;12.052;2023-11-19T14:10:55;1.00;;;1.00;;
19038;SDS011;9652;49.014;12.052;2023-11-19T14:13:22;2.07;;;1.07;;
19038;SDS011;9652;49.014;12.052;2023-11-19T14:15:51;0.97;;;0.97;;
19038;SDS011;9652;49.014;12.052;2023-11-19T14:18:18;1.30;;;1.20;;
19038;SDS011;9652;49.014;12.052;2023-11-19T14:20:45;0.90;;;0.90;;
19038;SDS011;9652;49.014;12.052;2023-11-19T14:23:12;1.20;;;1.10;;
19038;SDS011;9652;49.014;12.052;2023-11-19T14:25:39;1.83;;;1.30;;
19038;SDS011;9652;49.014;12.052;2023-11-19T14:28:06;1.40;;;1.10;;
19038;SDS011;9652;49.014;12.052;2023-11-19T14:30:33;1.40;;;1.30;;
19038;SDS011;9652;49.014;12.052;2023-11-19T14:33:02;1.00;;;0.93;;
19038;SDS011;9652;49.014;12.052;2023-11-19T14:35:30;0.90;;;0.90;;
19038;SDS011;9652;49.014;12.052;2023-11-19T14:37:57;3.73;;;1.30;;
19038;SDS011;9652;49.014;12.052;2023-11-19T14:40:25;1.30;;;1.30;;
19038;SDS011;9652;49.014;12.052;2023-11-19T14:42:52;1.03;;;1.00;;
19038;SDS011;9652;49.014;12.052;2023-11-19T14:45:20;1.00;;;1.00;;
19038;SDS011;9652;49.014;12.052;2023-11-19T14:47:47;1.33;;;1.23;;
19038;SDS011;9652;49.014;12.052;2023-11-19T14:50:16;1.30;;;1.20;;
19038;SDS011;9652;49.014;12.052;2023-11-19T14:52:43;1.30;;;1.20;;
19038;SDS011;9652;49.014;12.052;2023-11-19T14:55:10;2.83;;;1.20;;
19038;SDS011;9652;49.014;12.052;2023-11-19T14:57:37;1.63;;;1.30;;
19038;SDS011;9652;49.014;12.052;2023-11-19T15:00:07;2.97;;;1.37;;
19038;SDS011;9652;49.014;12.052;2023-11-19T15:02:38;1.00;;;1.00;;
19038;SDS011;9652;49.014;12.052;2023-11-19T15:05:07;1.33;;;1.30;;
19038;SDS011;9652;49.014;12.052;2023-11-19T15:07:37;2.00;;;1.33;;